sensor_id;sensor_type;location;lat;lon;timestamp;P1;durP1;ratioP1;P2;durP2;ratioP2
28311;SDS011;15572;48.810;9.148;2023-08-31T00:01:58;5.40;;;2.10;;
28311;SDS011;15572;48.810;9.148;2023-08-31T00:06:57;5.97;;;2.50;;
28311;SDS011;15572;48.810;9.148;2023-08-31T00:11:53;4.40;;;2.17;;
28311;SDS011;15572;48.810;9.148;2023-08-31T00:16:51;5.57;;;2.30;;
28311;SDS011;15572;48.810;9.148;2023-08-31T00:21:48;3.47;;;2.30;;
28311;SDS011;15572;48.810;9.148;2023-08-31T00:26:46;5.77;;;2.40;;
28311;SDS011;15572;48.810;9.148;2023-08-31T00:31:46;4.13;;;2.33;;
28311;SDS011;15572;48.810;9.148;2023-08-31T00:36:43;6.03;;;2.50;;
28311;SDS011;15572;48.810;9.148;2023-08-31T00:41:39;3.40;;;2.63;;
28311;SDS011;15572;48.810;9.148;2023-08-31T00:46:38;4.10;;;2.60;;
28311;SDS011;15572;48.810;9.148;2023-08-31T00:51:35;3.17;;;2.67;;
28311;SDS011;15572;48.810;9.148;2023-08-31T00:56:31;4.40;;;3.10;;
28311;SDS011;15572;48.810;9.148;2023-08-31T01:01:32;4.40;;;2.80;;
28311;SDS011;15572;48.810;9.148;2023-08-31T01:06:36;4.33;;;3.13;;
28311;SDS011;15572;48.810;9.148;2023-08-31T01:11:45;8.03;;;3.60;;
28311;SDS011;15572;48.810;9.148;2023-08-31T01:16:48;6.83;;;3.40;;
28311;SDS011;15572;48.810;9.148;2023-08-31T01:21:48;7.33;;;2.83;;
28311;SDS011;15572;48.810;9.148;2023-08-31T01:26:51;3.43;;;2.70;;
28311;SDS011;15572;48.810;9.148;2023-08-31T01:31:49;4.13;;;2.97;;
28311;SDS011;15572;48.810;9.148;2023-08-31T01:36:46;7.87;;;3.13;;
28311;SDS011;15572;48.810;9.148;2023-08-31T01:41:51;7.40;;;2.73;;
28311;SDS011;15572;48.810;9.148;2023-08-31T01:46:54;5.20;;;3.37;;
28311;SDS011;15572;48.810;9.148;2023-08-31T01:51:54;6.00;;;3.23;;
28311;SDS011;15572;48.810;9.148;2023-08-31T01:56:51;4.90;;;2.80;;
28311;SDS011;15572;48.810;9.148;2023-08-31T02:01:48;4.30;;;3.00;;
28311;SDS011;15572;48.810;9.148;2023-08-31T02:06:45;5.07;;;2.70;;
28311;SDS011;15572;48.810;9.148;2023-08-31T02:11:41;4.10;;;2.67;;
28311;SDS011;15572;48.810;9.148;2023-08-31T02:22:31;4.20;;;2.47;;
28311;SDS011;15572;48.810;9.148;2023-08-31T02:27:29;4.50;;;2.47;;
28311;SDS011;15572;48.810;9.148;2023-08-31T02:32:25;3.23;;;2.30;;
28311;SDS011;15572;48.810;9.148;2023-08-31T02:37:22;7.00;;;2.40;;
28311;SDS011;15572;48.810;9.148;2023-08-31T02:42:20;3.83;;;2.43;;
28311;SDS011;15572;48.810;9.148;2023-08-31T02:47:17;4.97;;;2.33;;
28311;SDS011;15572;48.810;9.148;2023-08-31T02:52:13;4.27;;;2.43;;
28311;SDS011;15572;48.810;9.148;2023-08-31T02:57:10;4.73;;;2.17;;
28311;SDS011;15572;48.810;9.148;2023-08-31T03:02:07;6.73;;;2.50;;
28311;SDS011;15572;48.810;9.148;2023-08-31T03:07:04;3.47;;;2.23;;
28311;SDS011;15572;48.810;9.148;2023-08-31T03:12:01;4.93;;;2.20;;
28311;SDS011;15572;48.810;9.148;2023-08-31T03:16:57;4.40;;;2.40;;
28311;SDS011;15572;48.810;9.148;2023-08-31T03:21:55;6.40;;;2.47;;
28311;SDS011;15572;48.810;9.148;2023-08-31T03:26:52;3.10;;;2.23;;
28311;SDS011;15572;48.810;9.148;2023-08-31T03:31:48;4.40;;;2.70;;
28311;SDS011;15572;48.810;9.148;2023-08-31T03:36:45;5.17;;;2.50;;
28311;SDS011;15572;48.810;9.148;2023-08-31T03:41:42;3.77;;;2.20;;
28311;SDS011;15572;48.810;9.148;2023-08-31T03:46:39;5.53;;;2.37;;
28311;SDS011;15572;48.810;9.148;2023-08-31T03:51:35;5.13;;;2.50;;
28311;SDS011;15572;48.810;9.148;2023-08-31T03:56:32;4.40;;;2.70;;
28311;SDS011;15572;48.810;9.148;2023-08-31T04:01:30;3.33;;;2.40;;
28311;SDS011;15572;48.810;9.148;2023-08-31T04:06:26;3.87;;;2.80;;
28311;SDS011;15572;48.810;9.148;2023-08-31T04:11:24;6.37;;;3.00;;
28311;SDS011;15572;48.810;9.148;2023-08-31T04:16:21;4.53;;;3.03;;
28311;SDS011;15572;48.810;9.148;2023-08-31T04:21:19;4.77;;;3.10;;
28311;SDS011;15572;48.810;9.148;2023-08-31T04:26:15;5.60;;;3.20;;
28311;SDS011;15572;48.810;9.148;2023-08-31T04:31:12;5.03;;;2.70;;
28311;SDS011;15572;48.810;9.148;2023-08-31T04:36:08;4.67;;;2.60;;
28311;SDS011;15572;48.810;9.148;2023-08-31T04:41:06;7.03;;;2.70;;
28311;SDS011;15572;48.810;9.148;2023-08-31T04:46:04;4.73;;;2.43;;
28311;SDS011;15572;48.810;9.148;2023-08-31T04:51:00;5.70;;;2.60;;
28311;SDS011;15572;48.810;9.148;2023-08-31T04:55:58;4.77;;;2.40;;
28311;SDS011;15572;48.810;9.148;2023-08-31T05:00:56;4.67;;;2.50;;
28311;SDS011;15572;48.810;9.148;2023-08-31T05:05:53;4.47;;;2.40;;
28311;SDS011;15572;48.810;9.148;2023-08-31T05:10:50;8.43;;;2.57;;
28311;SDS011;15572;48.810;9.148;2023-08-31T05:15:46;4.63;;;2.67;;
28311;SDS011;15572;48.810;9.148;2023-08-31T05:20:45;5.03;;;2.57;;
28311;SDS011;15572;48.810;9.148;2023-08-31T05:25:43;6.67;;;2.53;;
28311;SDS011;15572;48.810;9.148;2023-08-31T05:30:47;4.27;;;2.60;;
28311;SDS011;15572;48.810;9.148;2023-08-31T05:35:46;5.13;;;2.47;;
28311;SDS011;15572;48.810;9.148;2023-08-31T05:40:42;5.90;;;2.57;;
28311;SDS011;15572;48.810;9.148;2023-08-31T05:45:41;4.03;;;2.83;;
28311;SDS011;15572;48.810;9.148;2023-08-31T05:50:37;4.37;;;2.63;;
28311;SDS011;15572;48.810;9.148;2023-08-31T05:55:35;7.33;;;2.90;;
28311;SDS011;15572;48.810;9.148;2023-08-31T06:00:32;4.07;;;2.77;;
28311;SDS011;15572;48.810;9.148;2023-08-31T06:05:28;4.77;;;2.90;;
28311;SDS011;15572;48.810;9.148;2023-08-31T06:10:26;4.80;;;2.73;;
28311;SDS011;15572;48.810;9.148;2023-08-31T06:15:25;5.10;;;2.93;;
28311;SDS011;15572;48.810;9.148;2023-08-31T06:20:22;6.90;;;3.17;;
28311;SDS011;15572;48.810;9.148;2023-08-31T06:25:18;6.47;;;3.30;;
28311;SDS011;15572;48.810;9.148;2023-08-31T06:30:17;5.37;;;3.03;;
28311;SDS011;15572;48.810;9.148;2023-08-31T06:35:15;6.43;;;3.07;;
28311;SDS011;15572;48.810;9.148;2023-08-31T06:40:12;5.70;;;3.13;;
28311;SDS011;15572;48.810;9.148;2023-08-31T06:45:09;5.73;;;2.93;;
28311;SDS011;15572;48.810;9.148;2023-08-31T06:50:06;5.43;;;3.07;;
28311;SDS011;15572;48.810;9.148;2023-08-31T06:55:04;6.10;;;2.80;;
28311;SDS011;15572;48.810;9.148;2023-08-31T07:00:01;4.83;;;2.07;;
28311;SDS011;15572;48.810;9.148;2023-08-31T07:05:01;7.07;;;2.40;;
28311;SDS011;15572;48.810;9.148;2023-08-31T07:09:59;4.07;;;1.93;;
28311;SDS011;15572;48.810;9.148;2023-08-31T07:14:57;5.37;;;2.10;;
28311;SDS011;15572;48.810;9.148;2023-08-31T07:19:53;3.83;;;2.10;;
28311;SDS011;15572;48.810;9.148;2023-08-31T07:24:50;4.43;;;2.07;;
28311;SDS011;15572;48.810;9.148;2023-08-31T07:29:46;4.37;;;2.20;;
28311;SDS011;15572;48.810;9.148;2023-08-31T07:34:44;5.70;;;2.23;;
28311;SDS011;15572;48.810;9.148;2023-08-31T07:39:40;4.53;;;2.43;;
28311;SDS011;15572;48.810;9.148;2023-08-31T07:44:37;2.57;;;2.07;;
28311;SDS011;15572;48.810;9.148;2023-08-31T07:49:33;5.57;;;2.07;;
28311;SDS011;15572;48.810;9.148;2023-08-31T07:54:31;4.67;;;2.00;;
28311;SDS011;15572;48.810;9.148;2023-08-31T07:59:27;4.63;;;2.17;;
28311;SDS011;15572;48.810;9.148;2023-08-31T08:04:24;4.50;;;1.90;;
28311;SDS011;15572;48.810;9.148;2023-08-31T08:09:21;4.50;;;1.83;;
28311;SDS011;15572;48.810;9.148;2023-08-31T08:14:19;3.93;;;1.73;;
28311;SDS011;15572;48.810;9.148;2023-08-31T08:19:20;4.83;;;1.90;;
28311;SDS011;15572;48.810;9.148;2023-08-31T08:24:17;5.10;;;2.03;;
28311;SDS011;15572;48.810;9.148;2023-08-31T08:29:14;4.87;;;1.97;;
28311;SDS011;15572;48.810;9.148;2023-08-31T08:34:12;5.13;;;1.93;;
28311;SDS011;15572;48.810;9.148;2023-08-31T08:39:08;5.10;;;2.00;;
28311;SDS011;15572;48.810;9.148;2023-08-31T08:44:05;4.10;;;1.93;;
28311;SDS011;15572;48.810;9.148;2023-08-31T08:49:03;2.93;;;1.60;;
28311;SDS011;15572;48.810;9.148;2023-08-31T08:54:04;3.83;;;2.07;;
28311;SDS011;15572;48.810;9.148;2023-08-31T08:59:01;3.97;;;2.03;;
28311;SDS011;15572;48.810;9.148;2023-08-31T09:03:57;4.60;;;1.80;;
28311;SDS011;15572;48.810;9.148;2023-08-31T09:08:55;3.17;;;1.60;;
28311;SDS011;15572;48.810;9.148;2023-08-31T09:13:53;4.50;;;1.87;;
28311;SDS011;15572;48.810;9.148;2023-08-31T09:18:52;2.77;;;1.90;;
28311;SDS011;15572;48.810;9.148;2023-08-31T09:23:55;5.50;;;2.03;;
28311;SDS011;15572;48.810;9.148;2023-08-31T09:28:54;3.97;;;2.00;;
28311;SDS011;15572;48.810;9.148;2023-08-31T09:33:51;6.50;;;2.00;;
28311;SDS011;15572;48.810;9.148;2023-08-31T09:38:48;4.10;;;1.97;;
28311;SDS011;15572;48.810;9.148;2023-08-31T09:43:44;7.13;;;1.87;;
28311;SDS011;15572;48.810;9.148;2023-08-31T09:48:42;2.60;;;1.90;;
28311;SDS011;15572;48.810;9.148;2023-08-31T09:53:39;3.83;;;1.73;;
28311;SDS011;15572;48.810;9.148;2023-08-31T09:58:38;5.10;;;1.87;;
28311;SDS011;15572;48.810;9.148;2023-08-31T10:03:35;4.27;;;1.87;;
28311;SDS011;15572;48.810;9.148;2023-08-31T10:08:33;3.90;;;1.67;;
28311;SDS011;15572;48.810;9.148;2023-08-31T10:13:30;5.23;;;1.90;;
28311;SDS011;15572;48.810;9.148;2023-08-31T10:23:26;4.13;;;1.90;;
28311;SDS011;15572;48.810;9.148;2023-08-31T10:28:26;5.83;;;2.20;;
28311;SDS011;15572;48.810;9.148;2023-08-31T10:33:23;4.77;;;1.80;;
28311;SDS011;15572;48.810;9.148;2023-08-31T10:38:23;5.03;;;2.10;;
28311;SDS011;15572;48.810;9.148;2023-08-31T10:43:21;5.50;;;1.98;;
28311;SDS011;15572;48.810;9.148;2023-08-31T10:48:21;5.93;;;2.00;;
28311;SDS011;15572;48.810;9.148;2023-08-31T10:53:18;6.55;;;2.13;;
28311;SDS011;15572;48.810;9.148;2023-08-31T10:58:14;3.92;;;2.00;;
28311;SDS011;15572;48.810;9.148;2023-08-31T11:03:11;3.85;;;2.05;;
28311;SDS011;15572;48.810;9.148;2023-08-31T11:08:09;7.15;;;2.40;;
28311;SDS011;15572;48.810;9.148;2023-08-31T11:13:06;7.30;;;2.10;;
28311;SDS011;15572;48.810;9.148;2023-08-31T11:18:11;3.63;;;1.77;;
28311;SDS011;15572;48.810;9.148;2023-08-31T11:23:11;8.07;;;2.10;;
28311;SDS011;15572;48.810;9.148;2023-08-31T11:28:08;4.85;;;1.90;;
28311;SDS011;15572;48.810;9.148;2023-08-31T11:33:05;7.28;;;2.00;;
28311;SDS011;15572;48.810;9.148;2023-08-31T11:38:02;3.78;;;2.25;;
28311;SDS011;15572;48.810;9.148;2023-08-31T11:43:00;4.32;;;2.10;;
28311;SDS011;15572;48.810;9.148;2023-08-31T11:47:59;6.32;;;2.40;;
28311;SDS011;15572;48.810;9.148;2023-08-31T11:52:56;4.57;;;2.10;;
28311;SDS011;15572;48.810;9.148;2023-08-31T11:57:52;4.80;;;2.00;;
28311;SDS011;15572;48.810;9.148;2023-08-31T12:02:58;5.03;;;2.17;;
28311;SDS011;15572;48.810;9.148;2023-08-31T12:07:54;3.75;;;1.92;;
28311;SDS011;15572;48.810;9.148;2023-08-31T12:12:51;6.88;;;2.47;;
28311;SDS011;15572;48.810;9.148;2023-08-31T12:17:50;4.55;;;2.00;;
28311;SDS011;15572;48.810;9.148;2023-08-31T12:22:50;5.82;;;1.95;;
28311;SDS011;15572;48.810;9.148;2023-08-31T12:27:47;5.18;;;1.88;;
28311;SDS011;15572;48.810;9.148;2023-08-31T12:32:44;4.22;;;1.90;;
28311;SDS011;15572;48.810;9.148;2023-08-31T12:37:41;4.30;;;2.05;;
28311;SDS011;15572;48.810;9.148;2023-08-31T12:42:39;5.43;;;2.20;;
28311;SDS011;15572;48.810;9.148;2023-08-31T12:47:35;3.63;;;2.00;;
28311;SDS011;15572;48.810;9.148;2023-08-31T12:52:32;4.68;;;2.00;;
28311;SDS011;15572;48.810;9.148;2023-08-31T12:57:28;5.00;;;2.03;;
28311;SDS011;15572;48.810;9.148;2023-08-31T13:02:26;4.25;;;2.20;;
28311;SDS011;15572;48.810;9.148;2023-08-31T13:07:22;4.82;;;2.17;;
28311;SDS011;15572;48.810;9.148;2023-08-31T13:12:19;4.13;;;2.03;;
28311;SDS011;15572;48.810;9.148;2023-08-31T13:17:15;4.53;;;1.80;;
28311;SDS011;15572;48.810;9.148;2023-08-31T13:22:14;4.82;;;1.95;;
28311;SDS011;15572;48.810;9.148;2023-08-31T13:27:11;4.78;;;2.08;;
28311;SDS011;15572;48.810;9.148;2023-08-31T13:32:08;4.82;;;2.08;;
28311;SDS011;15572;48.810;9.148;2023-08-31T13:37:05;3.75;;;2.10;;
28311;SDS011;15572;48.810;9.148;2023-08-31T13:42:03;3.28;;;1.92;;
28311;SDS011;15572;48.810;9.148;2023-08-31T13:47:01;4.93;;;2.05;;
28311;SDS011;15572;48.810;9.148;2023-08-31T13:52:00;5.70;;;1.80;;
28311;SDS011;15572;48.810;9.148;2023-08-31T13:56:57;3.95;;;1.70;;
28311;SDS011;15572;48.810;9.148;2023-08-31T14:01:56;4.40;;;2.00;;
28311;SDS011;15572;48.810;9.148;2023-08-31T14:06:52;3.58;;;2.00;;
28311;SDS011;15572;48.810;9.148;2023-08-31T14:11:49;4.45;;;2.00;;
28311;SDS011;15572;48.810;9.148;2023-08-31T14:16:45;5.38;;;2.08;;
28311;SDS011;15572;48.810;9.148;2023-08-31T14:21:43;3.97;;;1.83;;
28311;SDS011;15572;48.810;9.148;2023-08-31T14:26:40;6.25;;;2.35;;
28311;SDS011;15572;48.810;9.148;2023-08-31T14:31:37;4.03;;;2.30;;
28311;SDS011;15572;48.810;9.148;2023-08-31T14:36:33;6.55;;;2.08;;
28311;SDS011;15572;48.810;9.148;2023-08-31T14:41:31;5.47;;;2.15;;
28311;SDS011;15572;48.810;9.148;2023-08-31T14:46:28;6.38;;;2.70;;
28311;SDS011;15572;48.810;9.148;2023-08-31T14:51:24;5.28;;;2.05;;
28311;SDS011;15572;48.810;9.148;2023-08-31T14:56:21;5.20;;;2.30;;
28311;SDS011;15572;48.810;9.148;2023-08-31T15:01:18;7.35;;;2.30;;
28311;SDS011;15572;48.810;9.148;2023-08-31T15:06:15;6.28;;;2.30;;
28311;SDS011;15572;48.810;9.148;2023-08-31T15:11:11;5.65;;;2.08;;
28311;SDS011;15572;48.810;9.148;2023-08-31T15:16:08;3.75;;;2.00;;
28311;SDS011;15572;48.810;9.148;2023-08-31T15:21:06;3.38;;;2.22;;
28311;SDS011;15572;48.810;9.148;2023-08-31T15:26:02;8.32;;;2.47;;
28311;SDS011;15572;48.810;9.148;2023-08-31T15:30:59;5.47;;;2.47;;
28311;SDS011;15572;48.810;9.148;2023-08-31T15:36:02;7.13;;;2.10;;
28311;SDS011;15572;48.810;9.148;2023-08-31T15:41:02;4.97;;;2.00;;
28311;SDS011;15572;48.810;9.148;2023-08-31T15:46:00;6.05;;;2.42;;
28311;SDS011;15572;48.810;9.148;2023-08-31T15:50:57;7.25;;;2.47;;
28311;SDS011;15572;48.810;9.148;2023-08-31T15:55:54;4.57;;;2.20;;
28311;SDS011;15572;48.810;9.148;2023-08-31T16:00:52;5.22;;;1.92;;
28311;SDS011;15572;48.810;9.148;2023-08-31T16:05:56;5.80;;;2.20;;
28311;SDS011;15572;48.810;9.148;2023-08-31T16:10:54;6.03;;;2.42;;
28311;SDS011;15572;48.810;9.148;2023-08-31T16:15:50;5.93;;;2.20;;
28311;SDS011;15572;48.810;9.148;2023-08-31T16:20:48;4.90;;;2.42;;
28311;SDS011;15572;48.810;9.148;2023-08-31T16:25:45;3.58;;;2.30;;
28311;SDS011;15572;48.810;9.148;2023-08-31T16:30:44;4.80;;;2.20;;
28311;SDS011;15572;48.810;9.148;2023-08-31T16:35:42;7.47;;;2.75;;
28311;SDS011;15572;48.810;9.148;2023-08-31T16:40:39;5.85;;;2.33;;
28311;SDS011;15572;48.810;9.148;2023-08-31T16:45:36;4.78;;;2.15;;
28311;SDS011;15572;48.810;9.148;2023-08-31T16:50:33;5.60;;;2.45;;
28311;SDS011;15572;48.810;9.148;2023-08-31T16:55:31;6.85;;;2.40;;
28311;SDS011;15572;48.810;9.148;2023-08-31T17:00:29;5.72;;;2.10;;
28311;SDS011;15572;48.810;9.148;2023-08-31T17:05:27;13.32;;;2.67;;
28311;SDS011;15572;48.810;9.148;2023-08-31T17:10:24;4.68;;;2.25;;
28311;SDS011;15572;48.810;9.148;2023-08-31T17:15:20;7.43;;;2.42;;
28311;SDS011;15572;48.810;9.148;2023-08-31T17:20:18;6.70;;;2.80;;
28311;SDS011;15572;48.810;9.148;2023-08-31T17:25:15;5.20;;;2.50;;
28311;SDS011;15572;48.810;9.148;2023-08-31T17:30:12;5.78;;;2.70;;
28311;SDS011;15572;48.810;9.148;2023-08-31T17:35:08;6.90;;;2.90;;
28311;SDS011;15572;48.810;9.148;2023-08-31T17:40:07;7.13;;;2.78;;
28311;SDS011;15572;48.810;9.148;2023-08-31T17:45:05;4.65;;;2.53;;
28311;SDS011;15572;48.810;9.148;2023-08-31T17:50:02;5.80;;;2.60;;
28311;SDS011;15572;48.810;9.148;2023-08-31T17:54:59;5.03;;;2.50;;
28311;SDS011;15572;48.810;9.148;2023-08-31T17:59:57;5.43;;;2.77;;
28311;SDS011;15572;48.810;9.148;2023-08-31T18:04:54;6.50;;;2.67;;
28311;SDS011;15572;48.810;9.148;2023-08-31T18:09:50;6.73;;;2.80;;
28311;SDS011;15572;48.810;9.148;2023-08-31T18:14:47;6.97;;;3.00;;
28311;SDS011;15572;48.810;9.148;2023-08-31T18:19:44;10.93;;;3.20;;
28311;SDS011;15572;48.810;9.148;2023-08-31T18:24:42;14.17;;;5.67;;
28311;SDS011;15572;48.810;9.148;2023-08-31T18:29:38;6.97;;;3.27;;
28311;SDS011;15572;48.810;9.148;2023-08-31T18:34:35;8.73;;;3.37;;
28311;SDS011;15572;48.810;9.148;2023-08-31T18:39:35;8.20;;;3.40;;
28311;SDS011;15572;48.810;9.148;2023-08-31T18:44:31;7.70;;;3.30;;
28311;SDS011;15572;48.810;9.148;2023-08-31T18:49:28;7.17;;;2.93;;
28311;SDS011;15572;48.810;9.148;2023-08-31T18:54:27;5.30;;;2.90;;
28311;SDS011;15572;48.810;9.148;2023-08-31T18:59:25;8.50;;;3.23;;
28311;SDS011;15572;48.810;9.148;2023-08-31T19:04:22;7.87;;;3.37;;
28311;SDS011;15572;48.810;9.148;2023-08-31T19:09:18;7.20;;;3.10;;
28311;SDS011;15572;48.810;9.148;2023-08-31T19:14:15;6.13;;;3.20;;
28311;SDS011;15572;48.810;9.148;2023-08-31T19:19:12;5.93;;;3.10;;
28311;SDS011;15572;48.810;9.148;2023-08-31T19:24:10;8.93;;;3.07;;
28311;SDS011;15572;48.810;9.148;2023-08-31T19:29:07;8.40;;;3.60;;
28311;SDS011;15572;48.810;9.148;2023-08-31T19:34:03;7.67;;;3.50;;
28311;SDS011;15572;48.810;9.148;2023-08-31T19:39:01;5.33;;;3.10;;
28311;SDS011;15572;48.810;9.148;2023-08-31T19:43:58;8.43;;;3.37;;
28311;SDS011;15572;48.810;9.148;2023-08-31T19:48:54;7.43;;;3.23;;
28311;SDS011;15572;48.810;9.148;2023-08-31T19:53:51;5.50;;;2.87;;
28311;SDS011;15572;48.810;9.148;2023-08-31T19:58:49;9.47;;;3.30;;
28311;SDS011;15572;48.810;9.148;2023-08-31T20:03:46;8.77;;;3.10;;
28311;SDS011;15572;48.810;9.148;2023-08-31T20:08:43;7.97;;;3.30;;
28311;SDS011;15572;48.810;9.148;2023-08-31T20:13:40;8.70;;;3.37;;
28311;SDS011;15572;48.810;9.148;2023-08-31T20:18:38;6.87;;;3.00;;
28311;SDS011;15572;48.810;9.148;2023-08-31T20:23:34;6.00;;;3.00;;
28311;SDS011;15572;48.810;9.148;2023-08-31T20:28:31;6.83;;;3.23;;
28311;SDS011;15572;48.810;9.148;2023-08-31T20:33:47;11.07;;;3.43;;
28311;SDS011;15572;48.810;9.148;2023-08-31T20:38:43;5.97;;;3.37;;
28311;SDS011;15572;48.810;9.148;2023-08-31T20:43:40;7.80;;;3.37;;
28311;SDS011;15572;48.810;9.148;2023-08-31T20:48:37;5.37;;;3.07;;
28311;SDS011;15572;48.810;9.148;2023-08-31T20:53:35;4.80;;;2.93;;
28311;SDS011;15572;48.810;9.148;2023-08-31T20:58:31;5.17;;;3.10;;
28311;SDS011;15572;48.810;9.148;2023-08-31T21:03:28;8.53;;;4.23;;
28311;SDS011;15572;48.810;9.148;2023-08-31T21:08:24;10.80;;;4.30;;
28311;SDS011;15572;48.810;9.148;2023-08-31T21:19:04;8.43;;;4.07;;
28311;SDS011;15572;48.810;9.148;2023-08-31T21:24:01;6.83;;;3.40;;
28311;SDS011;15572;48.810;9.148;2023-08-31T21:28:58;9.93;;;3.80;;
28311;SDS011;15572;48.810;9.148;2023-08-31T21:33:55;6.70;;;3.97;;
28311;SDS011;15572;48.810;9.148;2023-08-31T21:44:23;8.30;;;3.80;;
28311;SDS011;15572;48.810;9.148;2023-08-31T21:54:57;8.30;;;3.67;;
28311;SDS011;15572;48.810;9.148;2023-08-31T21:59:54;8.40;;;4.07;;
28311;SDS011;15572;48.810;9.148;2023-08-31T22:04:50;9.37;;;4.50;;
28311;SDS011;15572;48.810;9.148;2023-08-31T22:09:47;9.07;;;4.00;;
28311;SDS011;15572;48.810;9.148;2023-08-31T22:14:46;8.60;;;4.30;;
28311;SDS011;15572;48.810;9.148;2023-08-31T22:19:43;6.80;;;3.90;;
28311;SDS011;15572;48.810;9.148;2023-08-31T22:24:39;9.40;;;4.27;;
28311;SDS011;15572;48.810;9.148;2023-08-31T22:29:36;10.20;;;3.83;;
28311;SDS011;15572;48.810;9.148;2023-08-31T22:34:34;8.23;;;4.27;;
28311;SDS011;15572;48.810;9.148;2023-08-31T22:39:30;7.57;;;4.07;;
28311;SDS011;15572;48.810;9.148;2023-08-31T22:44:27;9.37;;;4.10;;
28311;SDS011;15572;48.810;9.148;2023-08-31T22:49:23;7.83;;;3.80;;
28311;SDS011;15572;48.810;9.148;2023-08-31T22:54:21;7.17;;;4.13;;
28311;SDS011;15572;48.810;9.148;2023-08-31T22:59:18;7.23;;;3.93;;
28311;SDS011;15572;48.810;9.148;2023-08-31T23:04:14;6.63;;;4.07;;
28311;SDS011;15572;48.810;9.148;2023-08-31T23:09:11;10.53;;;4.50;;
28311;SDS011;15572;48.810;9.148;2023-08-31T23:14:08;10.57;;;4.13;;
28311;SDS011;15572;48.810;9.148;2023-08-31T23:19:05;7.07;;;3.73;;
28311;SDS011;15572;48.810;9.148;2023-08-31T23:24:01;9.43;;;4.07;;
28311;SDS011;15572;48.810;9.148;2023-08-31T23:28:58;13.00;;;4.20;;
28311;SDS011;15572;48.810;9.148;2023-08-31T23:33:56;7.90;;;4.23;;
28311;SDS011;15572;48.810;9.148;2023-08-31T23:38:53;6.47;;;3.80;;
28311;SDS011;15572;48.810;9.148;2023-08-31T23:43:50;8.83;;;4.77;;
28311;SDS011;15572;48.810;9.148;2023-08-31T23:48:48;7.37;;;4.23;;
28311;SDS011;15572;48.810;9.148;2023-08-31T23:53:45;6.33;;;3.23;;
28311;SDS011;15572;48.810;9.148;2023-08-31T23:58:42;5.57;;;2.83;;
